Nearby METAR Reports

 

EBBR - Brussels Nationa, Belgium
Distance from station: W 14km
Updated: 07/07/2020 20:50
Helder
Helder
 Wind van varies
Wind: varies 2 km/h
Temperatuur: 18°C
Dauwpunt: 11°C
Vochtigheid: 64%
Barometer: 1018 hPa
Overzicht: Helder
Visibility: greater than 10 km
2020/07/07 18:50 EBBR 071850Z VRB01KT CAVOK 18/11 Q1018 NOSIG
EBBE - Beauvechain (baf, Belgium
Distance from station: ZZO 16km
Updated: 07/07/2020 20:55
Zwaar bewolkt
Zwaar bewolkt
 Wind van varies
Wind: varies 4 km/h
Temperatuur: 18°C
Dauwpunt: 11°C
Vochtigheid: 64%
Barometer: 1018 hPa
Clouds: Zwaar bewolkt
Visibility: 10 km
Cloud details: Few Clouds 1676 m
Meestal bewolkt 2438 m
Zwaar bewolkt 2896 m
2020/07/07 18:55 EBBE 071855Z AUTO VRB02KT 9999 FEW055/// BKN080/// OVC095/// 18/11 Q1018 BLU
 
EBDT - Schaffen, Belgium
Distance from station: ONO 30km
Updated: 07/07/2020 20:55
Zwaar bewolkt
Zwaar bewolkt
 Wind van varies
Wind: varies 2 km/h
Temperatuur: 18°C
Dauwpunt: 11°C
Vochtigheid: 64%
Barometer: 1018 hPa
Clouds: Zwaar bewolkt
Visibility: 10 km
Cloud details: Few Clouds 1676 m
Meestal bewolkt 2438 m
Zwaar bewolkt 3353 m
2020/07/07 18:55 EBDT 071855Z AUTO VRB01KT 9999 FEW055/// BKN080/// OVC110/// 18/11 Q1018 BLU
EBAW - Antwerp/Deurne, Belgium
Distance from station: NNW 38km
Updated: 07/07/2020 20:50
Helder
Helder
 Wind van NO
Wind: NO 7 km/h
Temperatuur: 18°C
Dauwpunt: 9°C
Vochtigheid: 56%
Barometer: 1018 hPa
Overzicht: Helder
Visibility: greater than 10 km
2020/07/07 18:50 EBAW 071850Z 05004KT CAVOK 18/09 Q1018 NOSIG